Time;durP1;ratioP1;P1;durP2;ratioP2;P2;SDS_P1;SDS_P2;PMS_P1;PMS_P2;Temp;Humidity;BMP_temperature;BMP_pressure;BME280_temperature;BME280_humidity;BME280_pressure;Samples;Min_cycle;Max_cycle;Signal;HPM_P1;HPM_P2
2021/06/05 00:00:04;;;;;;;7.85;6.03;;;15.00;97.60;;;;;;5908009;40;20095;-75
2021/06/05 00:04:08;;;;;;;9.20;5.13;;;15.00;97.50;;;;;;5915836;40;20057;-74
2021/06/05 00:08:10;;;;;;;;;;;15.00;97.50;;;;;;5909022;40;20093;-76
2021/06/05 00:12:16;;;;;;;10.73;5.53;;;15.40;98.70;;;;;;5904153;39;20322;-76
2021/06/05 00:16:21;;;;;;;6.97;4.95;;;14.90;97.60;;;;;;5910607;40;20053;-75
2021/06/05 00:20:23;;;;;;;10.75;5.63;;;14.90;97.60;;;;;;5913938;40;20044;-76
2021/06/05 00:24:25;;;;;;;9.48;5.35;;;14.90;97.60;;;;;;5909522;40;20056;-75
2021/06/05 00:28:27;;;;;;;10.38;6.07;;;14.90;97.70;;;;;;5908773;40;20057;-76
2021/06/05 00:32:29;;;;;;;;;;;14.50;97.50;;;;;;5905365;39;20353;-75
2021/06/05 00:36:31;;;;;;;6.85;5.63;;;14.90;98.70;;;;;;5908253;40;20328;-74
2021/06/05 00:40:38;;;;;;;8.32;5.25;;;14.90;97.50;;;;;;5914885;40;20331;-74
2021/06/05 00:44:42;;;;;;;7.60;5.55;;;14.90;97.50;;;;;;5909102;40;20060;-74
2021/06/05 00:48:44;;;;;;;8.82;5.55;;;14.90;97.60;;;;;;5909535;40;20362;-74
2021/06/05 00:52:49;;;;;;;7.70;5.70;;;14.60;97.40;;;;;;5903351;40;20047;-73
2021/06/05 00:57:00;;;;;;;10.88;5.93;;;14.80;97.50;;;;;;5913602;40;21478;-73
2021/06/05 01:01:12;;;;;;;10.07;6.70;;;14.80;97.60;;;;;;5907988;40;20142;-73
2021/06/05 01:05:16;;;;;;;12.52;6.40;;;14.40;97.50;;;;;;5914005;39;20059;-74
2021/06/05 01:09:32;;;;;;;7.03;5.50;;;14.30;97.60;;;;;;5904776;40;20052;-74
2021/06/05 01:13:43;;;;;;;10.00;5.78;;;14.70;97.80;;;;;;5907060;40;20123;-74
2021/06/05 01:17:52;;;;;;;10.77;5.07;;;14.40;97.80;;;;;;5912098;40;20408;-75
2021/06/05 01:22:17;;;;;;;10.60;6.00;;;14.30;97.90;;;;;;5907921;40;20377;-76
2021/06/05 01:26:24;;;;;;;10.05;5.45;;;14.40;98.30;;;;;;5909000;39;20048;-76
2021/06/05 01:30:38;;;;;;;11.10;5.85;;;14.70;98.10;;;;;;5915350;40;20045;-77
2021/06/05 01:34:56;;;;;;;7.57;5.68;;;14.70;98.00;;;;;;5918540;40;20455;-78
2021/06/05 01:39:08;;;;;;;8.82;6.03;;;14.10;97.90;;;;;;5909871;39;20044;-75
2021/06/05 01:43:13;;;;;;;14.55;5.93;;;14.60;98.00;;;;;;5911221;40;20305;-75
2021/06/05 01:47:17;;;;;;;10.38;5.70;;;15.40;98.10;;;;;;5910834;40;20453;-74
2021/06/05 01:51:22;;;;;;;15.15;6.15;;;14.60;98.00;;;;;;5906047;40;20334;-75
2021/06/05 01:55:40;;;;;;;8.55;5.00;;;14.40;97.90;;;;;;5915190;40;20057;-75
2021/06/05 01:59:47;;;;;;;7.45;5.22;;;14.60;98.00;;;;;;5915147;40;20045;-75
2021/06/05 02:03:53;;;;;;;8.85;5.32;;;14.00;97.80;;;;;;5914667;40;20207;-75
2021/06/05 02:07:59;;;;;;;12.68;5.35;;;14.50;97.90;;;;;;5906819;40;20352;-76
2021/06/05 02:12:27;;;;;;;13.05;5.55;;;14.60;98.00;;;;;;5909465;39;20179;-75
2021/06/05 02:16:53;;;;;;;9.73;5.85;;;14.50;98.00;;;;;;5909963;39;20057;-75
2021/06/05 02:21:06;;;;;;;9.10;5.85;;;14.40;98.00;;;;;;5911455;39;20057;-75
2021/06/05 02:25:11;;;;;;;9.15;5.60;;;14.40;98.00;;;;;;5905478;40;20041;-76
2021/06/05 02:29:19;;;;;;;8.18;5.40;;;14.40;98.50;;;;;;5917427;40;20068;-75
2021/06/05 02:33:22;;;;;;;7.72;5.28;;;14.40;98.20;;;;;;5904488;40;20053;-75
2021/06/05 02:37:29;;;;;;;10.27;5.72;;;14.30;98.30;;;;;;5917194;40;20432;-76
2021/06/05 02:41:32;;;;;;;19.05;6.10;;;14.30;98.30;;;;;;5909008;39;20069;-76
2021/06/05 02:45:48;;;;;;;7.75;5.05;;;14.90;98.60;;;;;;5901983;40;20041;-77
2021/06/05 02:49:53;;;;;;;10.50;5.63;;;14.30;98.50;;;;;;5916006;40;20403;-77
2021/06/05 02:53:56;;;;;;;10.70;5.65;;;14.20;98.50;;;;;;5894896;40;20063;-76
2021/06/05 02:57:59;;;;;;;8.57;5.30;;;13.80;98.40;;;;;;5887302;40;20080;-76
2021/06/05 03:02:03;;;;;;;8.93;4.63;;;14.30;98.50;;;;;;5909216;40;20045;-76
2021/06/05 03:06:08;;;;;;;6.53;3.97;;;14.30;98.50;;;;;;5909485;40;20049;-76
2021/06/05 03:10:12;;;;;;;7.03;4.75;;;13.40;98.00;;;;;;5911656;40;20061;-76
2021/06/05 03:14:14;;;;;;;8.45;5.43;;;14.30;98.20;;;;;;5905887;40;20416;-75
2021/06/05 03:18:23;;;;;;;9.32;5.15;;;13.80;98.10;;;;;;5911290;40;20328;-76
2021/06/05 03:22:26;;;;;;;9.18;4.68;;;14.30;98.20;;;;;;5910877;40;20421;-76
2021/06/05 03:26:30;;;;;;;9.00;5.05;;;14.30;98.10;;;;;;5918699;39;20435;-75
2021/06/05 03:30:36;;;;;;;8.30;4.40;;;14.30;98.20;;;;;;5908137;40;20051;-75
2021/06/05 03:34:40;;;;;;;8.98;4.72;;;14.30;98.10;;;;;;5909531;40;20499;-77
2021/06/05 03:38:46;;;;;;;7.25;4.80;;;14.40;98.10;;;;;;5902254;39;20805;-75
2021/06/05 03:42:58;;;;;;;10.05;4.55;;;14.40;98.20;;;;;;5912019;39;20106;-76
2021/06/05 03:47:03;;;;;;;8.38;4.90;;;14.50;98.10;;;;;;5909342;39;20061;-76
2021/06/05 03:51:08;;;;;;;6.60;4.93;;;14.60;98.10;;;;;;5906631;39;20404;-76
2021/06/05 03:55:13;;;;;;;7.15;4.68;;;15.40;98.10;;;;;;5915412;39;20065;-76
2021/06/05 03:59:15;;;;;;;8.27;4.40;;;14.70;97.90;;;;;;5909519;39;20097;-76
2021/06/05 04:03:17;;;;;;;8.13;4.93;;;14.30;97.60;;;;;;5910586;39;20067;-76
2021/06/05 04:07:19;;;;;;;;;;;14.80;97.60;;;;;;5912622;39;20359;-75
2021/06/05 04:11:23;;;;;;;10.07;4.82;;;14.90;98.50;;;;;;5907668;39;20018;-75
2021/06/05 04:15:27;;;;;;;10.43;5.05;;;14.30;97.50;;;;;;5920894;39;20305;-76
2021/06/05 04:19:30;;;;;;;8.65;4.90;;;15.90;97.90;;;;;;5909659;39;20073;-76
2021/06/05 04:23:32;;;;;;;9.70;5.53;;;14.90;97.70;;;;;;5909546;39;20061;-74
2021/06/05 04:27:34;;;;;;;7.22;5.20;;;15.60;97.80;;;;;;5905730;39;20078;-75
2021/06/05 04:31:36;;;;;;;8.38;4.95;;;14.90;97.70;;;;;;5911803;39;20138;-75
2021/06/05 04:35:38;;;;;;;9.20;5.20;;;14.90;97.80;;;;;;5907878;39;20435;-74
2021/06/05 04:39:40;;;;;;;;;;;15.00;97.60;;;;;;5910054;40;20311;-75
2021/06/05 04:43:43;;;;;;;7.93;4.78;;;15.20;98.10;;;;;;5898242;40;19944;-75
2021/06/05 04:47:45;;;;;;;10.20;5.80;;;14.80;97.30;;;;;;5921514;39;20402;-75
2021/06/05 04:51:47;;;;;;;10.00;5.82;;;15.80;97.20;;;;;;5908420;40;20049;-75
2021/06/05 04:55:49;;;;;;;;;;;15.70;96.80;;;;;;5909722;40;20320;-74
2021/06/05 04:59:54;;;;;;;10.65;5.70;;;16.50;97.10;;;;;;5908939;40;19936;-81
2021/06/05 05:03:59;;;;;;;5.68;4.05;;;16.10;96.50;;;;;;5917438;40;20154;-73
2021/06/05 05:08:02;;;;;;;9.85;5.13;;;16.10;96.40;;;;;;5908410;40;20077;-72
2021/06/05 05:12:05;;;;;;;9.75;4.90;;;16.70;96.40;;;;;;5907118;40;20447;-72
2021/06/05 05:16:08;;;;;;;10.55;5.30;;;16.30;96.30;;;;;;5910046;39;20479;-73
2021/06/05 05:20:14;;;;;;;10.90;5.07;;;16.40;96.20;;;;;;5914532;40;20560;-73
2021/06/05 05:24:16;;;;;;;7.50;4.60;;;16.50;96.20;;;;;;5908903;40;20049;-74
2021/06/05 05:28:18;;;;;;;13.57;5.28;;;16.60;95.90;;;;;;5899887;40;20057;-74
2021/06/05 05:32:20;;;;;;;6.07;4.85;;;16.50;95.90;;;;;;5904580;40;20073;-74
2021/06/05 05:36:27;;;;;;;6.75;4.68;;;16.20;96.00;;;;;;5903988;40;20053;-74
2021/06/05 05:40:29;;;;;;;9.25;5.00;;;16.50;96.00;;;;;;5907720;40;20312;-75
2021/06/05 05:44:32;;;;;;;13.13;5.28;;;16.80;95.90;;;;;;5916929;40;20056;-74
2021/06/05 05:48:36;;;;;;;9.65;5.55;;;16.40;95.80;;;;;;5911160;40;20075;-73
2021/06/05 05:52:38;;;;;;;8.23;4.78;;;16.30;96.10;;;;;;5911735;40;20065;-73
2021/06/05 05:56:39;;;;;;;9.32;5.47;;;17.00;95.90;;;;;;5904952;40;20052;-76
2021/06/05 06:00:44;;;;;;;8.57;5.20;;;16.50;95.50;;;;;;5910014;40;20553;-75
2021/06/05 06:04:46;;;;;;;7.43;4.63;;;16.90;95.70;;;;;;5908185;40;20138;-75
2021/06/05 06:08:49;;;;;;;6.97;4.95;;;17.40;95.80;;;;;;5905518;39;20426;-74
2021/06/05 06:12:51;;;;;;;9.38;4.82;;;17.30;95.70;;;;;;5906667;40;20549;-75
2021/06/05 06:16:53;;;;;;;7.15;4.47;;;17.50;95.40;;;;;;5909024;40;20154;-74
2021/06/05 06:20:55;;;;;;;9.88;4.28;;;17.30;95.20;;;;;;5911130;40;20088;-73
2021/06/05 06:24:57;;;;;;;8.68;5.22;;;17.90;95.30;;;;;;5911826;40;20149;-78
2021/06/05 06:29:13;;;;;;;;;;;17.90;95.20;;;;;;5912367;40;20085;-75
2021/06/05 06:33:17;;;;;;;7.25;4.53;;;17.80;94.40;;;;;;5904089;40;19933;-73
2021/06/05 06:37:19;;;;;;;9.38;4.65;;;18.40;95.10;;;;;;5902135;40;20384;-74
2021/06/05 06:41:28;;;;;;;10.85;5.10;;;18.00;95.20;;;;;;5914559;40;20154;-75
2021/06/05 06:45:31;;;;;;;10.63;4.82;;;18.10;94.90;;;;;;5916469;40;20530;-74
2021/06/05 06:49:33;;;;;;;9.63;4.90;;;18.60;94.80;;;;;;5908880;40;20059;-73
2021/06/05 06:53:36;;;;;;;11.18;5.72;;;18.40;94.60;;;;;;5908862;40;20044;-74
2021/06/05 06:57:38;;;;;;;9.50;5.88;;;18.40;94.70;;;;;;5906991;40;20345;-74
2021/06/05 07:01:40;;;;;;;8.43;5.05;;;18.60;94.70;;;;;;5908217;39;20047;-74
2021/06/05 07:05:43;;;;;;;7.05;4.78;;;18.90;94.50;;;;;;5917454;40;20071;-74
2021/06/05 07:09:47;;;;;;;9.65;4.72;;;18.90;94.10;;;;;;5910157;40;20113;-73
2021/06/05 07:13:50;;;;;;;10.73;5.53;;;19.00;94.40;;;;;;5908231;39;20519;-73
2021/06/05 07:17:54;;;;;;;8.35;5.10;;;20.00;94.60;;;;;;5909005;40;20296;-74
2021/06/05 07:21:56;;;;;;;11.20;5.03;;;19.30;94.20;;;;;;5909602;39;20090;-72
2021/06/05 07:25:59;;;;;;;;;;;19.50;94.00;;;;;;5909271;39;20452;-74
2021/06/05 07:30:04;;;;;;;8.27;4.90;;;19.50;92.70;;;;;;5907094;40;19945;-73
2021/06/05 07:34:06;;;;;;;9.07;4.65;;;19.50;93.90;;;;;;5906006;39;20065;-75
2021/06/05 07:38:09;;;;;;;9.13;4.80;;;19.40;94.30;;;;;;5913679;40;20055;-75
2021/06/05 07:42:11;;;;;;;7.57;4.38;;;19.50;94.10;;;;;;5907905;40;20053;-73
2021/06/05 07:46:13;;;;;;;;;;;19.50;94.00;;;;;;5910008;40;20134;-74
2021/06/05 07:50:16;;;;;;;7.45;4.43;;;;;;;;;;5909672;40;20492;-74
2021/06/05 07:54:18;;;;;;;11.35;4.60;;;19.40;98.70;;;;;;5907736;40;20138;-75
2021/06/05 07:58:20;;;;;;;7.00;4.70;;;19.50;94.30;;;;;;5908511;40;20403;-75
2021/06/05 08:02:22;;;;;;;9.25;4.60;;;19.70;93.80;;;;;;5915714;40;20154;-75
2021/06/05 08:06:24;;;;;;;;;;;19.70;94.10;;;;;;5915658;40;20427;-74
2021/06/05 08:10:30;;;;;;;7.15;4.45;;;19.80;92.40;;;;;;5908286;40;19960;-75
2021/06/05 08:14:32;;;;;;;8.20;4.25;;;19.90;93.60;;;;;;5917151;40;20085;-82
2021/06/05 08:18:34;;;;;;;;;;;19.80;94.00;;;;;;5926336;39;20084;-82
2021/06/05 08:22:36;;;;;;;9.15;4.07;;;19.80;92.70;;;;;;5921951;40;20053;-81
2021/06/05 08:26:42;;;;;;;10.80;5.20;;;19.80;94.30;;;;;;5907277;40;20070;-83
2021/06/05 08:30:46;;;;;;;7.72;4.53;;;19.70;93.60;;;;;;5937726;39;20073;-81
2021/06/05 08:34:48;;;;;;;7.88;4.40;;;20.20;94.00;;;;;;5905420;39;20053;-77
2021/06/05 08:38:51;;;;;;;;;;;20.10;93.70;;;;;;5901615;40;20064;-81
2021/06/05 08:42:59;;;;;;;7.03;4.72;;;19.50;92.00;;;;;;5927527;39;19936;-81
2021/06/05 08:47:25;;;;;;;8.93;4.03;;;19.80;93.20;;;;;;5919837;40;20063;-79
2021/06/05 08:51:38;;;;;;;10.57;5.18;;;20.30;92.70;;;;;;5924735;40;20660;-77
2021/06/05 08:55:51;;;;;;;7.88;4.65;;;20.40;93.10;;;;;;5926809;40;20074;-76
2021/06/05 08:59:58;;;;;;;8.13;5.32;;;21.00;92.50;;;;;;5918002;40;20833;-79
2021/06/05 09:04:09;;;;;;;8.70;4.97;;;20.40;93.20;;;;;;5913763;40;20056;-81
2021/06/05 09:08:18;;;;;;;8.52;4.20;;;20.50;92.90;;;;;;5925287;40;20041;-79
2021/06/05 09:12:27;;;;;;;7.25;4.25;;;20.20;93.00;;;;;;5914925;40;20044;-79
2021/06/05 09:16:55;;;;;;;9.60;4.30;;;20.30;93.30;;;;;;5919083;39;20146;-79
2021/06/05 09:21:06;;;;;;;10.68;4.70;;;20.40;92.80;;;;;;5914865;40;20050;-79
2021/06/05 09:25:23;;;;;;;12.30;5.20;;;19.80;91.80;;;;;;5917333;40;20166;-78
2021/06/05 09:29:25;;;;;;;9.52;5.20;;;20.70;91.70;;;;;;5922571;40;20052;-79
2021/06/05 09:33:32;;;;;;;9.57;4.50;;;20.80;92.50;;;;;;5914005;39;20073;-80
2021/06/05 09:37:47;;;;;;;9.27;4.28;;;21.40;92.70;;;;;;5916283;40;20458;-78
2021/06/05 09:41:51;;;;;;;8.60;5.00;;;21.10;91.70;;;;;;5915905;40;20073;-79
2021/06/05 09:46:15;;;;;;;8.25;4.38;;;21.20;92.00;;;;;;5914630;40;20162;-78
2021/06/05 09:50:32;;;;;;;9.70;5.25;;;21.10;91.70;;;;;;5913311;40;20089;-77
2021/06/05 09:54:47;;;;;;;8.48;5.25;;;20.90;92.40;;;;;;5921650;40;20053;-78
2021/06/05 09:59:05;;;;;;;7.90;4.68;;;21.00;91.50;;;;;;5914790;40;20033;-79
2021/06/05 10:03:19;;;;;;;6.40;4.47;;;20.90;92.30;;;;;;5911107;39;20044;-79
2021/06/05 10:07:26;;;;;;;11.15;4.57;;;21.10;91.90;;;;;;5905797;40;20154;-79
2021/06/05 10:11:38;;;;;;;9.98;5.43;;;21.20;91.90;;;;;;5916087;40;20061;-78
2021/06/05 10:16:08;;;;;;;7.90;4.80;;;21.20;91.70;;;;;;5912260;40;20049;-78
2021/06/05 10:20:36;;;;;;;9.18;4.63;;;21.10;91.80;;;;;;5912949;40;20056;-79
2021/06/05 10:24:50;;;;;;;6.97;4.60;;;21.40;90.60;;;;;;5917453;39;20057;-79
2021/06/05 10:28:58;;;;;;;8.70;4.80;;;21.50;91.80;;;;;;5917485;40;20048;-79
2021/06/05 10:33:02;;;;;;;7.57;4.40;;;22.00;91.20;;;;;;5915607;40;20402;-76
2021/06/05 10:37:05;;;;;;;10.88;4.60;;;22.00;91.40;;;;;;5922540;39;20056;-74
2021/06/05 10:41:13;;;;;;;6.90;4.38;;;22.10;90.90;;;;;;5921832;40;20053;-79
2021/06/05 10:45:26;;;;;;;7.15;4.63;;;22.30;90.70;;;;;;5921946;40;20128;-76
2021/06/05 10:49:42;;;;;;;5.68;3.85;;;22.40;90.50;;;;;;5924064;40;20130;-80
2021/06/05 10:53:56;;;;;;;9.75;4.32;;;22.40;90.40;;;;;;5916126;40;20068;-78
2021/06/05 10:58:13;;;;;;;6.00;3.78;;;22.60;90.20;;;;;;5916850;39;21124;-80
2021/06/05 11:02:33;;;;;;;6.30;4.00;;;22.80;89.70;;;;;;5915178;40;20057;-80
2021/06/05 11:06:47;;;;;;;8.60;4.47;;;23.00;88.00;;;;;;5914621;40;20133;-78
2021/06/05 11:11:11;;;;;;;5.97;4.28;;;22.90;85.20;;;;;;5913846;40;20393;-79
2021/06/05 11:15:47;;;;;;;8.95;4.00;;;23.00;86.80;;;;;;5913305;40;20130;-77
2021/06/05 11:20:11;;;;;;;6.43;3.55;;;22.70;87.50;;;;;;5916619;39;20372;-79
2021/06/05 11:24:19;;;;;;;8.05;4.13;;;23.30;87.80;;;;;;5911217;40;20068;-79
2021/06/05 11:28:30;;;;;;;5.68;4.35;;;23.50;86.10;;;;;;5904397;40;20071;-77
2021/06/05 11:32:53;;;;;;;7.68;4.00;;;23.40;85.30;;;;;;5911670;40;20359;-78
2021/06/05 11:37:05;;;;;;;8.57;4.45;;;23.70;85.80;;;;;;5916499;39;20049;-79
2021/06/05 11:41:09;;;;;;;8.90;3.78;;;23.80;83.10;;;;;;5921112;40;20060;-78
2021/06/05 11:45:31;;;;;;;7.50;4.40;;;23.80;85.70;;;;;;5923925;40;20098;-77
2021/06/05 11:49:55;;;;;;;7.05;4.38;;;23.90;76.50;;;;;;5915697;39;20053;-79
2021/06/05 11:54:00;;;;;;;6.28;4.05;;;23.90;83.30;;;;;;5911084;39;20605;-79
2021/06/05 11:58:06;;;;;;;8.23;4.00;;;24.40;83.30;;;;;;5901838;40;20052;-79
2021/06/05 12:02:25;;;;;;;5.97;3.70;;;23.80;82.50;;;;;;5911225;40;20072;-76
2021/06/05 12:06:27;;;;;;;11.10;4.35;;;23.70;85.10;;;;;;5914325;40;20045;-77
2021/06/05 12:10:34;;;;;;;6.60;4.13;;;23.70;82.50;;;;;;5913932;40;20080;-79
2021/06/05 12:14:49;;;;;;;5.95;4.25;;;23.80;82.40;;;;;;5912885;40;20048;-78
2021/06/05 12:18:52;;;;;;;8.02;4.63;;;23.90;82.60;;;;;;5913253;39;20081;-77
2021/06/05 12:22:57;;;;;;;7.47;4.22;;;23.80;82.50;;;;;;5913938;39;20056;-78
2021/06/05 12:27:05;;;;;;;8.10;4.00;;;24.30;83.20;;;;;;5911448;40;20057;-78
2021/06/05 12:31:20;;;;;;;9.25;4.55;;;23.40;81.60;;;;;;5913374;40;20053;-78
2021/06/05 12:35:29;;;;;;;7.97;4.40;;;23.30;80.80;;;;;;5910495;40;23381;-80
2021/06/05 12:39:31;;;;;;;7.15;4.00;;;23.30;83.30;;;;;;5905921;40;20111;-78
2021/06/05 12:43:36;;;;;;;9.10;4.68;;;23.40;84.10;;;;;;5914350;40;20081;-78
2021/06/05 12:47:42;;;;;;;7.40;4.50;;;23.30;82.60;;;;;;5915291;39;20072;-77
2021/06/05 12:52:00;;;;;;;6.32;4.00;;;23.60;82.10;;;;;;5905828;40;20135;-77
2021/06/05 12:56:25;;;;;;;6.38;3.75;;;23.40;81.80;;;;;;5915546;39;20036;-76
2021/06/05 13:00:30;;;;;;;5.65;3.58;;;23.50;81.60;;;;;;5908752;40;20436;-77
2021/06/05 13:04:38;;;;;;;5.80;3.60;;;23.50;81.20;;;;;;5913638;40;20055;-78
2021/06/05 13:08:42;;;;;;;6.25;4.00;;;23.40;80.40;;;;;;5914572;40;20055;-79
2021/06/05 13:12:45;;;;;;;8.10;3.78;;;23.30;80.90;;;;;;5906271;40;20053;-76
2021/06/05 13:16:49;;;;;;;5.57;3.67;;;23.40;80.80;;;;;;5900635;40;20420;-77
2021/06/05 13:20:57;;;;;;;7.25;2.97;;;23.30;81.10;;;;;;5912601;39;20055;-76
2021/06/05 13:25:17;;;;;;;8.13;3.80;;;23.10;81.40;;;;;;5908920;39;20134;-77
2021/06/05 13:29:35;;;;;;;6.82;3.85;;;22.90;76.70;;;;;;5917581;40;20069;-78
2021/06/05 13:33:46;;;;;;;8.23;3.63;;;22.80;78.70;;;;;;5909654;40;20084;-77
2021/06/05 13:37:54;;;;;;;8.30;4.13;;;23.00;79.00;;;;;;5913562;40;20052;-77
2021/06/05 13:41:56;;;;;;;11.60;4.32;;;22.80;80.90;;;;;;5915255;40;20176;-76
2021/06/05 13:46:02;;;;;;;5.72;3.03;;;22.90;80.40;;;;;;5912983;40;20060;-77
2021/06/05 13:50:06;;;;;;;6.00;3.72;;;22.30;79.70;;;;;;5921234;40;20053;-77
2021/06/05 13:54:10;;;;;;;6.80;3.72;;;22.90;80.10;;;;;;5910421;40;20056;-77
2021/06/05 13:58:13;;;;;;;6.88;3.78;;;22.90;79.00;;;;;;5907094;40;20817;-76
2021/06/05 14:02:15;;;;;;;6.25;3.30;;;22.50;78.80;;;;;;5915482;40;20461;-77
2021/06/05 14:06:18;;;;;;;5.07;3.20;;;23.80;78.50;;;;;;5912768;39;20130;-73
2021/06/05 14:10:20;;;;;;;6.07;3.90;;;22.80;78.70;;;;;;5923098;40;20388;-78
2021/06/05 14:14:21;;;;;;;5.75;3.83;;;22.70;78.80;;;;;;5917927;40;20089;-78
2021/06/05 14:18:30;;;;;;;6.15;3.60;;;22.60;78.80;;;;;;5926293;40;20573;-76
2021/06/05 14:22:32;;;;;;;8.63;3.55;;;22.60;79.70;;;;;;5908349;39;20041;-76
2021/06/05 14:26:34;;;;;;;6.30;3.80;;;22.70;80.20;;;;;;5913708;40;20419;-77
2021/06/05 14:30:42;;;;;;;7.57;3.92;;;22.70;81.00;;;;;;5912797;40;20063;-77
2021/06/05 14:34:44;;;;;;;5.60;3.97;;;22.70;81.60;;;;;;5911095;40;20065;-77
2021/06/05 14:38:46;;;;;;;9.52;4.82;;;22.80;82.00;;;;;;5912149;40;20339;-77
2021/06/05 14:42:48;;;;;;;6.22;3.78;;;22.90;81.60;;;;;;5918632;40;20629;-76
2021/06/05 14:46:50;;;;;;;9.20;4.50;;;22.80;81.80;;;;;;5913412;40;20057;-78
2021/06/05 14:50:52;;;;;;;7.30;4.32;;;22.70;82.10;;;;;;5916444;40;20044;-76
2021/06/05 14:54:54;;;;;;;6.57;4.93;;;22.80;81.90;;;;;;5910286;40;20437;-77
2021/06/05 14:58:56;;;;;;;7.53;4.50;;;22.80;84.10;;;;;;5918184;40;20440;-78
2021/06/05 15:02:58;;;;;;;9.45;5.32;;;22.80;84.50;;;;;;5915424;40;20073;-77
2021/06/05 15:07:00;;;;;;;8.15;5.32;;;23.90;85.80;;;;;;5910867;40;20069;-77
2021/06/05 15:11:02;;;;;;;9.60;5.72;;;23.50;85.20;;;;;;5910461;40;20150;-76
2021/06/05 15:15:05;;;;;;;9.57;6.15;;;23.10;84.70;;;;;;5916032;40;20479;-77
2021/06/05 15:19:07;;;;;;;10.10;5.57;;;23.00;85.40;;;;;;5922827;40;20084;-78
2021/06/05 15:23:12;;;;;;;9.07;5.60;;;22.90;86.00;;;;;;5923953;39;20126;-78
2021/06/05 15:27:14;;;;;;;7.95;5.22;;;22.90;85.50;;;;;;5904416;39;20414;-76
2021/06/05 15:31:17;;;;;;;7.25;5.15;;;22.80;85.70;;;;;;5915324;40;20045;-77
2021/06/05 15:35:22;;;;;;;8.52;6.50;;;22.70;85.80;;;;;;5915520;40;20053;-76
2021/06/05 15:39:24;;;;;;;10.25;5.90;;;22.60;86.40;;;;;;5907351;40;20069;-77
2021/06/05 15:43:31;;;;;;;10.57;6.38;;;22.60;86.90;;;;;;5921341;40;20332;-77
2021/06/05 15:47:33;;;;;;;8.38;5.72;;;22.60;87.10;;;;;;5923587;40;20045;-78
2021/06/05 15:51:39;;;;;;;9.32;6.78;;;22.90;87.40;;;;;;5915236;39;20486;-78
2021/06/05 15:55:43;;;;;;;8.20;6.28;;;23.30;87.90;;;;;;5910555;40;20201;-76
2021/06/05 15:59:45;;;;;;;12.05;6.75;;;22.60;88.00;;;;;;5915264;40;20060;-77
2021/06/05 16:03:48;;;;;;;17.98;10.32;;;22.50;88.20;;;;;;5912362;40;20071;-76
2021/06/05 16:07:50;;;;;;;14.55;6.90;;;22.50;87.50;;;;;;5914088;40;20076;-75
2021/06/05 16:11:52;;;;;;;10.30;5.95;;;22.50;87.60;;;;;;5915411;40;20049;-78
2021/06/05 16:16:03;;;;;;;12.10;5.93;;;22.40;88.00;;;;;;5915098;40;20463;-78
2021/06/05 16:20:06;;;;;;;8.52;5.53;;;22.40;87.90;;;;;;5925163;40;20049;-79
2021/06/05 16:24:08;;;;;;;10.25;4.88;;;22.40;88.10;;;;;;5912811;40;20056;-77
2021/06/05 16:28:10;;;;;;;8.82;5.47;;;22.50;87.90;;;;;;5915641;39;20057;-79
2021/06/05 16:32:13;;;;;;;8.23;4.97;;;22.40;87.20;;;;;;5917944;40;20053;-78
2021/06/05 16:36:16;;;;;;;7.30;5.25;;;23.30;87.70;;;;;;5915389;39;20324;-77
2021/06/05 16:40:19;;;;;;;9.80;4.53;;;21.80;87.00;;;;;;5912831;40;20073;-77
2021/06/05 16:44:21;;;;;;;5.28;4.22;;;22.20;86.80;;;;;;5912548;40;20045;-78
2021/06/05 16:48:25;;;;;;;9.40;4.90;;;21.90;86.20;;;;;;5913205;40;20064;-78
2021/06/05 16:52:28;;;;;;;6.35;4.55;;;21.90;86.50;;;;;;5922746;40;20102;-77
2021/06/05 16:56:31;;;;;;;8.35;4.53;;;21.90;86.50;;;;;;5917524;40;20056;-78
2021/06/05 17:00:40;;;;;;;7.80;5.10;;;21.80;86.10;;;;;;5918410;40;20060;-78
2021/06/05 17:04:42;;;;;;;9.82;7.03;;;22.50;87.30;;;;;;5919921;40;20072;-78
2021/06/05 17:08:44;;;;;;;7.70;5.10;;;21.70;87.50;;;;;;5922882;40;20089;-78
2021/06/05 17:12:46;;;;;;;8.25;5.22;;;21.60;86.90;;;;;;5916113;40;20092;-77
2021/06/05 17:16:48;;;;;;;10.07;4.90;;;21.60;86.40;;;;;;5910802;40;20411;-78
2021/06/05 17:20:52;;;;;;;7.82;4.70;;;21.70;86.40;;;;;;5915856;40;20320;-78
2021/06/05 17:24:54;;;;;;;7.10;5.18;;;21.50;86.50;;;;;;5928880;39;20061;-80
2021/06/05 17:28:59;;;;;;;6.80;4.60;;;21.40;87.00;;;;;;5904655;40;20064;-77
2021/06/05 17:33:01;;;;;;;9.57;4.57;;;20.80;86.10;;;;;;5927657;40;20398;-78
2021/06/05 17:37:03;;;;;;;12.45;6.35;;;21.70;86.10;;;;;;5926217;39;20103;-79
2021/06/05 17:41:07;;;;;;;10.40;5.40;;;21.40;85.90;;;;;;5911940;40;20704;-80
2021/06/05 17:45:11;;;;;;;8.55;4.97;;;21.40;85.90;;;;;;5927474;40;20102;-79
2021/06/05 17:49:13;;;;;;;9.73;5.13;;;21.30;86.20;;;;;;5927540;40;20372;-78
2021/06/05 17:53:16;;;;;;;8.18;5.50;;;21.50;87.00;;;;;;5922658;40;20091;-80
2021/06/05 17:57:18;;;;;;;8.80;5.10;;;21.10;87.30;;;;;;5924800;39;20063;-79
2021/06/05 18:01:20;;;;;;;44.90;36.97;;;20.70;87.30;;;;;;5923189;39;20141;-79
2021/06/05 18:05:23;;;;;;;7.38;5.50;;;21.20;88.00;;;;;;5917772;39;20071;-79
2021/06/05 18:09:26;;;;;;;8.02;4.72;;;20.60;87.90;;;;;;5919907;40;20344;-78
2021/06/05 18:13:28;;;;;;;8.93;4.60;;;20.80;88.90;;;;;;5927029;39;20416;-79
2021/06/05 18:17:30;;;;;;;9.90;5.38;;;21.60;89.80;;;;;;5920045;39;20098;-80
2021/06/05 18:21:33;;;;;;;6.30;4.35;;;20.70;89.70;;;;;;5922985;40;20049;-79
2021/06/05 18:25:37;;;;;;;7.40;4.88;;;20.60;89.90;;;;;;5922278;40;20414;-79
2021/06/05 18:29:39;;;;;;;8.73;4.78;;;21.10;90.00;;;;;;5922303;40;20088;-77
2021/06/05 18:33:42;;;;;;;8.07;4.80;;;20.50;90.00;;;;;;5916292;39;20804;-78
2021/06/05 18:37:46;;;;;;;9.05;5.32;;;20.10;90.00;;;;;;5927352;40;20048;-79
2021/06/05 18:41:51;;;;;;;9.45;4.93;;;20.30;90.00;;;;;;5920176;40;20069;-79
2021/06/05 18:45:54;;;;;;;9.95;5.00;;;19.60;89.80;;;;;;5915136;40;20269;-79
2021/06/05 18:49:57;;;;;;;8.23;4.70;;;19.60;90.00;;;;;;5911209;40;20045;-79
2021/06/05 18:54:00;;;;;;;7.47;4.25;;;20.10;90.20;;;;;;5921579;40;20186;-79
2021/06/05 18:58:04;;;;;;;8.60;4.82;;;21.20;90.60;;;;;;5927196;40;20103;-79
2021/06/05 19:02:07;;;;;;;7.00;4.88;;;20.00;90.40;;;;;;5921205;40;20045;-80
2021/06/05 19:06:16;;;;;;;12.13;5.20;;;19.80;90.50;;;;;;5923272;40;20052;-80
2021/06/05 19:10:18;;;;;;;7.18;4.55;;;19.60;90.60;;;;;;5928654;39;20056;-79
2021/06/05 19:14:29;;;;;;;9.43;5.53;;;19.60;90.70;;;;;;5921119;39;20045;-78
2021/06/05 19:18:32;;;;;;;7.38;5.20;;;19.60;90.80;;;;;;5929143;40;20045;-79
2021/06/05 19:22:34;;;;;;;7.10;5.47;;;19.50;90.90;;;;;;5923500;40;20077;-78
2021/06/05 19:26:40;;;;;;;9.05;5.65;;;19.40;91.00;;;;;;5923900;39;20391;-78
2021/06/05 19:30:53;;;;;;;7.57;5.05;;;21.40;91.40;;;;;;5922121;40;20041;-79
2021/06/05 19:34:56;;;;;;;11.05;5.53;;;19.40;91.00;;;;;;5926991;39;20084;-79
2021/06/05 19:38:58;;;;;;;;;;;19.40;91.10;;;;;;5925714;40;20053;-79
2021/06/05 19:43:00;;;;;;;14.82;7.32;;;19.30;92.00;;;;;;5921510;40;19940;-80
2021/06/05 19:47:02;;;;;;;7.75;5.93;;;19.20;91.10;;;;;;5914201;39;20339;-80
2021/06/05 19:51:06;;;;;;;9.88;5.88;;;19.20;91.10;;;;;;5926722;40;20037;-79
2021/06/05 19:55:09;;;;;;;7.72;4.90;;;19.10;91.10;;;;;;5912906;40;20045;-80
2021/06/05 19:59:11;;;;;;;12.15;5.35;;;19.10;91.10;;;;;;5905060;40;20046;-80
2021/06/05 20:03:14;;;;;;;7.07;4.80;;;19.00;91.10;;;;;;5907161;40;20056;-78
2021/06/05 20:07:16;;;;;;;9.20;5.97;;;18.90;91.10;;;;;;5905998;40;20053;-80
2021/06/05 20:11:19;;;;;;;;;;;18.50;91.10;;;;;;5906032;40;20053;-79
2021/06/05 20:15:27;;;;;;;8.73;4.65;;;19.10;92.10;;;;;;5898488;40;19936;-80
2021/06/05 20:19:29;;;;;;;7.88;5.05;;;18.80;91.30;;;;;;5906754;40;20079;-80
2021/06/05 20:23:32;;;;;;;;;;;18.80;91.50;;;;;;5906359;40;20037;-81
2021/06/05 20:27:52;;;;;;;8.57;5.10;;;18.80;92.20;;;;;;5916407;40;19947;-79
2021/06/05 20:32:11;;;;;;;8.68;5.18;;;19.10;91.60;;;;;;5922896;39;20045;-79
2021/06/05 20:36:39;;;;;;;9.52;5.43;;;18.50;91.60;;;;;;5907826;40;20064;-80
2021/06/05 20:40:42;;;;;;;8.73;4.88;;;18.10;91.60;;;;;;5904928;40;20057;-79
2021/06/05 20:44:44;;;;;;;6.82;5.43;;;18.60;91.80;;;;;;5927628;40;20495;-81
2021/06/05 20:48:49;;;;;;;5.88;4.38;;;19.50;91.90;;;;;;5906608;40;20053;-80
2021/06/05 20:52:51;;;;;;;8.18;4.80;;;18.10;91.60;;;;;;5908256;40;20073;-80
2021/06/05 20:56:54;;;;;;;8.50;4.90;;;18.90;91.70;;;;;;5920978;40;20073;-81
2021/06/05 21:00:58;;;;;;;6.07;4.78;;;19.80;91.90;;;;;;5912933;40;20065;-80
2021/06/05 21:05:01;;;;;;;6.60;4.80;;;18.50;91.50;;;;;;5903944;40;20053;-81
2021/06/05 21:09:08;;;;;;;6.07;4.45;;;18.50;91.50;;;;;;5927451;40;20071;-80
2021/06/05 21:13:11;;;;;;;6.47;4.20;;;18.50;91.30;;;;;;5924748;40;20057;-81
2021/06/05 21:17:13;;;;;;;12.10;4.72;;;17.80;90.80;;;;;;5920092;39;20657;-81
2021/06/05 21:21:15;;;;;;;;;;;20.00;91.50;;;;;;5927248;40;20052;-81